LIRS/GRS METAR and TAF weather

Enter ICAO airport designator
Station Type Date Time Source
LIRS METAR 2020/07/05 14:55 UTC NOAA

LIRS 051455Z 34010KT 300V020 9999 FEW030 34/12 Q1013


Station Type Date Time Source
LIRS Decoded METAR 2020/07/05 14:55 UTC NOAA

Grosseto, Italy (LIRS) 42-45N 011-04E 7M
Jul 05, 2020 - 10:55 AM EDT / 2020.07.05 1455 UTC
Wind: from the NNW (340 degrees) at 12 MPH (10 KT) (direction variable):0
Visibility: greater than 7 mile(s):0
Sky conditions: mostly clear
Temperature: 93 F (34 C)
Dew Point: 53 F (12 C)
Relative Humidity: 26%
Pressure (altimeter): 29.91 in. Hg (1013 hPa)
ob: LIRS 051455Z 34010KT 300V020 9999 FEW030 34/12 Q1013
cycle: 15

Station Type Date Time Source
LIRS TAF 2018/06/29 09:24 UTC NOAA

TAF TAF LIRS 290800Z 2909/2921 VRB03KT 9999 FEW030
BECMG 2911/2913 24015KT

Example: see airport list